Time;durP1;ratioP1;P1;durP2;ratioP2;P2;SDS_P1;SDS_P2;PMS_P1;PMS_P2;Temp;Humidity;BMP_temperature;BMP_pressure;BME280_temperature;BME280_humidity;BME280_pressure;Samples;Min_cycle;Max_cycle;Signal;HPM_P1;HPM_P2
2023/12/09 00:01:19;;;;;;;11.35;5.90;;;6.10;99.90;;;;;;494090;241;27536;-73
2023/12/09 00:03:20;;;;;;;6.43;5.32;;;6.10;99.90;;;;;;494037;241;27540;-73
2023/12/09 00:05:22;;;;;;;5.22;4.25;;;6.10;99.90;;;;;;494028;241;27505;-73
2023/12/09 00:07:23;;;;;;;8.00;4.85;;;6.10;99.90;;;;;;493998;241;27465;-73
2023/12/09 00:09:24;;;;;;;8.10;4.62;;;6.10;99.90;;;;;;493986;241;28087;-73
2023/12/09 00:11:25;;;;;;;5.97;4.20;;;6.10;99.90;;;;;;494099;241;28155;-74
2023/12/09 00:13:27;;;;;;;11.45;6.87;;;6.20;99.90;;;;;;494006;240;27477;-73
2023/12/09 00:15:28;;;;;;;8.32;5.87;;;6.20;99.90;;;;;;494043;241;27616;-73
2023/12/09 00:17:29;;;;;;;6.35;5.47;;;6.20;99.90;;;;;;494009;241;27475;-73
2023/12/09 00:19:30;;;;;;;8.20;5.80;;;6.20;99.90;;;;;;494020;241;27486;-73
2023/12/09 00:21:32;;;;;;;12.68;6.03;;;6.20;99.90;;;;;;494011;241;27504;-74
2023/12/09 00:23:33;;;;;;;7.37;5.30;;;6.20;99.90;;;;;;494099;241;27982;-72
2023/12/09 00:25:34;;;;;;;7.15;5.15;;;6.20;99.90;;;;;;494086;241;28008;-73
2023/12/09 00:27:36;;;;;;;6.90;4.20;;;6.20;99.90;;;;;;494016;241;27527;-73
2023/12/09 00:29:37;;;;;;;8.88;4.97;;;6.20;99.90;;;;;;494105;241;27476;-73
2023/12/09 00:31:38;;;;;;;12.43;6.60;;;6.30;99.90;;;;;;493955;241;27646;-72
2023/12/09 00:33:40;;;;;;;7.80;6.55;;;6.30;99.90;;;;;;494069;241;27456;-73
2023/12/09 00:35:41;;;;;;;9.93;5.87;;;6.30;99.90;;;;;;494104;241;27986;-73
2023/12/09 00:37:42;;;;;;;7.60;5.30;;;6.30;99.90;;;;;;494020;241;28052;-74
2023/12/09 00:39:43;;;;;;;16.77;7.20;;;6.30;99.90;;;;;;493972;241;27536;-73
2023/12/09 00:41:44;;;;;;;9.07;6.18;;;6.30;99.90;;;;;;493964;239;27603;-72
2023/12/09 00:43:46;;;;;;;10.20;5.65;;;6.30;99.90;;;;;;493970;241;27469;-72
2023/12/09 00:45:47;;;;;;;13.13;7.32;;;6.30;99.90;;;;;;494018;241;27627;-73
2023/12/09 00:47:48;;;;;;;22.62;7.28;;;6.30;99.90;;;;;;493952;241;27493;-73
2023/12/09 00:49:49;;;;;;;13.35;7.93;;;6.30;99.90;;;;;;493934;241;27910;-73
2023/12/09 00:51:51;;;;;;;10.73;6.30;;;6.30;99.90;;;;;;494072;241;27573;-73
2023/12/09 00:53:52;;;;;;;10.18;6.82;;;6.30;99.90;;;;;;494066;241;27489;-73
2023/12/09 00:55:53;;;;;;;12.37;6.78;;;6.20;99.90;;;;;;493995;241;27466;-73
2023/12/09 00:57:54;;;;;;;11.05;7.00;;;6.30;99.90;;;;;;493962;241;27559;-73
2023/12/09 00:59:56;;;;;;;15.57;8.50;;;6.20;99.90;;;;;;494071;241;27922;-73
2023/12/09 01:01:57;;;;;;;11.10;7.43;;;6.30;99.90;;;;;;494058;241;27965;-73
2023/12/09 01:03:58;;;;;;;18.10;7.35;;;6.30;99.90;;;;;;494108;241;27635;-75
2023/12/09 01:05:59;;;;;;;15.18;7.05;;;6.30;99.90;;;;;;494064;241;27959;-72
2023/12/09 01:08:01;;;;;;;19.23;7.57;;;6.30;99.90;;;;;;494093;237;27538;-73
2023/12/09 01:10:03;;;;;;;17.27;7.53;;;6.30;99.90;;;;;;494080;241;27560;-71
2023/12/09 01:12:03;;;;;;;25.65;7.68;;;6.30;99.90;;;;;;493990;241;27935;-72
2023/12/09 01:14:05;;;;;;;12.25;6.90;;;6.30;99.90;;;;;;494054;241;27498;-74
2023/12/09 01:16:07;;;;;;;15.43;7.20;;;6.30;99.90;;;;;;494068;241;27484;-73
2023/12/09 01:18:07;;;;;;;17.02;6.82;;;6.30;99.90;;;;;;493985;241;27521;-72
2023/12/09 01:20:08;;;;;;;13.73;7.28;;;6.30;99.90;;;;;;494047;241;27499;-73
2023/12/09 01:22:10;;;;;;;18.55;7.82;;;6.20;99.90;;;;;;494058;241;28008;-72
2023/12/09 01:24:11;;;;;;;8.00;5.60;;;6.30;99.90;;;;;;494053;241;27972;-73
2023/12/09 01:26:12;;;;;;;15.85;9.48;;;6.30;99.90;;;;;;494078;241;27464;-73
2023/12/09 01:28:13;;;;;;;14.23;8.65;;;6.20;99.90;;;;;;494040;241;27580;-72
2023/12/09 01:30:15;;;;;;;26.90;12.30;;;6.20;99.90;;;;;;494068;241;27509;-73
2023/12/09 01:32:16;;;;;;;16.52;9.13;;;6.20;99.90;;;;;;494041;241;27469;-73
2023/12/09 01:34:17;;;;;;;23.87;8.63;;;6.20;99.90;;;;;;494047;241;27954;-74
2023/12/09 01:36:18;;;;;;;16.25;6.72;;;6.30;99.90;;;;;;494137;241;27786;-73
2023/12/09 01:38:20;;;;;;;20.30;7.07;;;6.30;99.90;;;;;;494111;241;27487;-73
2023/12/09 01:40:21;;;;;;;13.27;6.55;;;6.30;99.90;;;;;;494117;241;27498;-74
2023/12/09 01:42:22;;;;;;;16.45;6.25;;;6.30;99.90;;;;;;494033;241;27457;-72
2023/12/09 01:44:23;;;;;;;11.38;5.62;;;6.30;99.90;;;;;;494031;241;27536;-73
2023/12/09 01:46:25;;;;;;;15.40;6.18;;;6.30;99.90;;;;;;494060;241;28050;-74
2023/12/09 01:48:26;;;;;;;11.45;5.95;;;6.30;99.90;;;;;;494109;241;27469;-73
2023/12/09 01:50:27;;;;;;;12.50;6.07;;;6.30;99.90;;;;;;494104;241;27576;-73
2023/12/09 01:52:28;;;;;;;13.30;5.18;;;6.20;99.90;;;;;;494020;241;27456;-73
2023/12/09 01:54:30;;;;;;;14.43;6.03;;;6.20;99.90;;;;;;494020;241;27505;-73
2023/12/09 01:56:31;;;;;;;16.92;5.07;;;6.20;99.90;;;;;;494108;241;27593;-73
2023/12/09 01:58:32;;;;;;;11.55;4.85;;;6.20;99.90;;;;;;494071;241;27945;-72
2023/12/09 02:00:34;;;;;;;14.68;5.35;;;6.20;99.90;;;;;;494020;241;27509;-73
2023/12/09 02:02:35;;;;;;;14.90;5.15;;;6.20;99.90;;;;;;494012;241;27515;-73
2023/12/09 02:04:36;;;;;;;15.48;5.22;;;6.20;99.90;;;;;;494018;241;27580;-73
2023/12/09 02:06:37;;;;;;;14.77;5.35;;;6.20;99.90;;;;;;494004;241;27505;-73
2023/12/09 02:08:39;;;;;;;11.40;4.30;;;6.20;99.90;;;;;;493995;241;27461;-73
2023/12/09 02:10:40;;;;;;;15.07;5.62;;;6.20;99.90;;;;;;493962;241;27999;-72
2023/12/09 02:12:41;;;;;;;14.07;5.60;;;6.20;99.90;;;;;;494109;241;27514;-75
2023/12/09 02:14:42;;;;;;;11.35;4.87;;;6.20;99.90;;;;;;493998;241;27470;-72
2023/12/09 02:16:44;;;;;;;15.30;5.20;;;6.20;99.90;;;;;;494007;241;27580;-73
2023/12/09 02:18:45;;;;;;;13.10;5.53;;;6.20;99.90;;;;;;494034;241;27619;-72
2023/12/09 02:20:46;;;;;;;16.17;5.22;;;6.20;99.90;;;;;;493996;241;27490;-72
2023/12/09 02:22:47;;;;;;;11.55;3.80;;;6.20;99.90;;;;;;494065;241;28038;-73
2023/12/09 02:24:49;;;;;;;12.13;4.78;;;6.20;99.90;;;;;;493982;241;27512;-73
2023/12/09 02:26:50;;;;;;;11.68;4.10;;;6.20;99.90;;;;;;494080;237;27528;-72
2023/12/09 02:28:51;;;;;;;14.05;4.72;;;6.20;99.90;;;;;;494088;241;27545;-74
2023/12/09 02:30:52;;;;;;;18.58;4.30;;;6.10;99.90;;;;;;494014;241;27481;-72
2023/12/09 02:32:54;;;;;;;13.43;4.35;;;6.10;99.90;;;;;;494009;241;28061;-73
2023/12/09 02:34:55;;;;;;;13.30;4.20;;;6.10;99.90;;;;;;493965;241;27996;-73
2023/12/09 02:36:56;;;;;;;14.80;3.87;;;6.10;99.90;;;;;;494042;241;27488;-73
2023/12/09 02:38:57;;;;;;;13.90;4.20;;;6.10;99.90;;;;;;494020;241;27510;-73
2023/12/09 02:40:59;;;;;;;20.60;4.65;;;6.10;99.90;;;;;;494091;241;27470;-73
2023/12/09 02:43:00;;;;;;;17.33;4.22;;;6.10;99.90;;;;;;494093;241;27549;-73
2023/12/09 02:45:01;;;;;;;14.20;4.25;;;6.10;99.90;;;;;;493999;241;28663;-72
2023/12/09 02:47:03;;;;;;;12.68;3.95;;;6.00;99.90;;;;;;494030;241;27999;-72
2023/12/09 02:49:04;;;;;;;16.08;4.68;;;6.00;99.90;;;;;;493978;241;27645;-72
2023/12/09 02:51:05;;;;;;;9.32;3.30;;;6.00;99.90;;;;;;493686;241;27508;-72
2023/12/09 02:53:06;;;;;;;18.45;5.03;;;6.00;99.90;;;;;;494087;241;27509;-73
2023/12/09 02:55:08;;;;;;;12.77;4.30;;;6.00;99.90;;;;;;494102;241;27595;-74
2023/12/09 02:57:09;;;;;;;12.68;3.92;;;6.00;99.90;;;;;;493998;241;27911;-73
2023/12/09 02:59:10;;;;;;;12.63;3.05;;;5.90;99.90;;;;;;493986;241;28237;-72
2023/12/09 03:01:11;;;;;;;14.60;4.05;;;6.00;99.90;;;;;;493998;241;27471;-72
2023/12/09 03:03:13;;;;;;;14.87;3.42;;;6.00;99.90;;;;;;494091;241;27556;-73
2023/12/09 03:05:14;;;;;;;10.40;4.25;;;6.00;99.90;;;;;;494081;241;27504;-73
2023/12/09 03:07:20;;;;;;;25.75;4.10;;;6.00;99.90;;;;;;494060;241;27606;-73
2023/12/09 03:09:16;;;;;;;7.22;3.40;;;6.00;99.90;;;;;;493635;241;28010;-73
2023/12/09 03:11:18;;;;;;;12.25;3.55;;;6.00;99.90;;;;;;494000;241;28156;-72
2023/12/09 03:13:19;;;;;;;27.15;4.07;;;6.00;99.90;;;;;;494032;241;27579;-72
2023/12/09 03:15:20;;;;;;;9.75;3.40;;;6.10;99.90;;;;;;493990;241;27579;-73
2023/12/09 03:17:21;;;;;;;17.23;4.03;;;6.10;99.90;;;;;;493984;241;27541;-73
2023/12/09 03:19:23;;;;;;;9.88;3.30;;;6.00;99.90;;;;;;494070;241;27501;-72
2023/12/09 03:21:24;;;;;;;8.57;2.90;;;6.00;99.90;;;;;;494097;241;28077;-74
2023/12/09 03:23:25;;;;;;;14.63;2.90;;;6.00;99.90;;;;;;494098;241;28011;-73
2023/12/09 03:25:26;;;;;;;14.07;3.83;;;6.00;99.90;;;;;;494059;241;27597;-72
2023/12/09 03:27:28;;;;;;;16.77;3.95;;;6.00;99.90;;;;;;494010;241;27459;-73
2023/12/09 03:29:29;;;;;;;18.73;4.05;;;6.00;99.90;;;;;;494099;241;27619;-73
2023/12/09 03:31:30;;;;;;;14.05;3.50;;;6.00;99.90;;;;;;494098;241;27504;-73
2023/12/09 03:33:32;;;;;;;16.80;3.28;;;6.00;99.90;;;;;;493971;241;27904;-72
2023/12/09 03:35:33;;;;;;;12.37;3.40;;;6.10;99.90;;;;;;494056;237;28082;-73
2023/12/09 03:37:34;;;;;;;13.27;3.53;;;6.00;99.90;;;;;;494069;241;27615;-72
2023/12/09 03:39:35;;;;;;;13.25;3.58;;;6.00;99.90;;;;;;494088;241;27523;-73
2023/12/09 03:41:37;;;;;;;14.25;4.53;;;6.10;99.90;;;;;;493984;241;27603;-74
2023/12/09 03:43:38;;;;;;;18.60;3.33;;;6.10;99.90;;;;;;494063;241;28057;-73
2023/12/09 03:45:39;;;;;;;17.35;4.47;;;6.10;99.90;;;;;;494078;241;28075;-73
2023/12/09 03:47:40;;;;;;;18.15;4.30;;;6.10;99.90;;;;;;494077;241;27604;-75
2023/12/09 03:49:42;;;;;;;15.35;4.30;;;6.10;99.90;;;;;;494086;241;27470;-73
2023/12/09 03:51:43;;;;;;;11.10;3.47;;;6.00;99.90;;;;;;494035;241;27513;-73
2023/12/09 03:53:44;;;;;;;9.57;4.20;;;6.00;99.90;;;;;;494071;241;27477;-72
2023/12/09 03:55:45;;;;;;;16.23;4.55;;;6.00;99.90;;;;;;494015;241;27948;-73
2023/12/09 03:57:47;;;;;;;8.07;3.70;;;6.00;99.90;;;;;;494083;241;28157;-74
2023/12/09 03:59:48;;;;;;;13.65;3.85;;;6.00;99.90;;;;;;494016;241;27549;-73
2023/12/09 04:01:50;;;;;;;12.77;4.10;;;6.00;99.90;;;;;;493975;241;27509;-73
2023/12/09 04:03:50;;;;;;;19.00;4.68;;;6.00;99.90;;;;;;494017;241;27848;-75
2023/12/09 04:05:52;;;;;;;12.98;4.47;;;6.00;99.90;;;;;;494022;241;27488;-73
2023/12/09 04:07:53;;;;;;;10.93;3.85;;;6.00;99.90;;;;;;494064;237;28039;-73
2023/12/09 04:09:55;;;;;;;13.68;3.72;;;6.00;99.90;;;;;;494057;241;27922;-74
2023/12/09 04:11:55;;;;;;;9.73;3.20;;;6.00;99.90;;;;;;494077;238;27497;-73
2023/12/09 04:13:57;;;;;;;9.23;4.37;;;6.10;99.90;;;;;;494116;241;27520;-75
2023/12/09 04:15:58;;;;;;;16.15;4.07;;;6.00;99.90;;;;;;493943;241;27470;-73
2023/12/09 04:17:59;;;;;;;10.82;4.68;;;6.00;99.90;;;;;;493998;237;27711;-73
2023/12/09 04:20:01;;;;;;;13.13;4.18;;;6.10;99.90;;;;;;494046;241;27478;-73
2023/12/09 04:22:02;;;;;;;8.70;4.35;;;6.10;99.90;;;;;;494063;241;27953;-73
2023/12/09 04:24:03;;;;;;;10.32;3.60;;;6.10;99.90;;;;;;494130;241;27620;-73
2023/12/09 04:26:04;;;;;;;8.00;3.70;;;6.10;99.90;;;;;;494128;241;27459;-72
2023/12/09 04:28:06;;;;;;;7.37;3.03;;;6.10;99.90;;;;;;494110;241;27521;-73
2023/12/09 04:30:07;;;;;;;9.45;3.42;;;6.10;99.90;;;;;;494077;241;27853;-74
2023/12/09 04:32:08;;;;;;;15.90;4.03;;;6.10;99.90;;;;;;494003;241;27945;-73
2023/12/09 04:34:10;;;;;;;12.45;4.32;;;6.10;99.90;;;;;;494122;241;28025;-73
2023/12/09 04:36:11;;;;;;;7.55;3.35;;;6.10;99.90;;;;;;494008;241;27549;-73
2023/12/09 04:38:12;;;;;;;12.98;4.15;;;6.20;99.90;;;;;;494002;241;27506;-72
2023/12/09 04:40:13;;;;;;;15.77;4.82;;;6.20;99.90;;;;;;494061;241;27592;-73
2023/12/09 04:42:14;;;;;;;13.30;4.35;;;6.20;99.90;;;;;;494014;241;27570;-72
2023/12/09 04:44:16;;;;;;;27.55;5.60;;;6.20;99.90;;;;;;493998;241;28000;-73
2023/12/09 04:46:17;;;;;;;10.48;4.78;;;6.20;99.90;;;;;;494060;241;29026;-73
2023/12/09 04:48:18;;;;;;;15.18;5.15;;;6.30;99.90;;;;;;494150;241;27489;-73
2023/12/09 04:50:19;;;;;;;16.52;6.10;;;6.20;99.90;;;;;;494105;241;27514;-73
2023/12/09 04:52:21;;;;;;;15.88;4.55;;;6.20;99.90;;;;;;494025;241;27550;-73
2023/12/09 04:54:22;;;;;;;16.60;5.90;;;6.20;99.90;;;;;;494018;241;27614;-72
2023/12/09 04:56:23;;;;;;;16.80;5.30;;;6.20;99.90;;;;;;494045;241;27977;-73
2023/12/09 04:58:25;;;;;;;9.05;4.47;;;6.30;99.90;;;;;;494033;241;27463;-73
2023/12/09 05:00:26;;;;;;;13.88;5.40;;;6.30;99.90;;;;;;494028;239;27596;-73
2023/12/09 05:02:27;;;;;;;11.88;5.35;;;6.30;99.90;;;;;;493999;241;27467;-73
2023/12/09 05:04:28;;;;;;;14.45;5.20;;;6.30;99.90;;;;;;494010;237;27496;-72
2023/12/09 05:06:30;;;;;;;15.80;5.10;;;6.30;99.90;;;;;;494025;241;27580;-74
2023/12/09 05:08:31;;;;;;;17.58;5.70;;;6.30;99.90;;;;;;494031;241;27903;-72
2023/12/09 05:10:32;;;;;;;16.40;6.00;;;6.30;99.90;;;;;;494055;241;27518;-72
2023/12/09 05:12:33;;;;;;;12.75;6.07;;;6.30;99.90;;;;;;494025;241;27596;-72
2023/12/09 05:14:35;;;;;;;7.68;4.62;;;6.30;99.90;;;;;;494067;241;27547;-72
2023/12/09 05:16:36;;;;;;;11.10;5.90;;;6.30;99.90;;;;;;494085;241;27534;-73
2023/12/09 05:18:37;;;;;;;10.60;5.55;;;6.30;99.90;;;;;;494118;241;27565;-73
2023/12/09 05:20:38;;;;;;;9.82;4.72;;;6.30;99.90;;;;;;494059;241;28067;-73
2023/12/09 05:22:40;;;;;;;16.02;6.12;;;6.30;99.90;;;;;;494080;241;27561;-73
2023/12/09 05:24:41;;;;;;;17.05;5.75;;;6.30;99.90;;;;;;494055;241;27595;-73
2023/12/09 05:26:42;;;;;;;14.77;6.10;;;6.30;99.90;;;;;;494087;241;27565;-72
2023/12/09 05:28:43;;;;;;;16.50;6.10;;;6.30;99.90;;;;;;494045;237;27555;-73
2023/12/09 05:30:45;;;;;;;13.48;6.87;;;6.30;99.90;;;;;;494094;241;27595;-72
2023/12/09 05:32:46;;;;;;;11.93;6.10;;;6.40;99.90;;;;;;494098;241;27992;-75
2023/12/09 05:34:47;;;;;;;11.38;5.30;;;6.30;99.90;;;;;;494028;241;27521;-73
2023/12/09 05:36:48;;;;;;;8.98;5.05;;;6.40;99.90;;;;;;494006;239;27533;-73
2023/12/09 05:38:50;;;;;;;23.02;6.43;;;6.40;99.90;;;;;;494146;241;27558;-73
2023/12/09 05:40:51;;;;;;;12.32;5.50;;;6.40;99.90;;;;;;494118;237;27463;-73
2023/12/09 05:42:52;;;;;;;17.45;7.30;;;6.40;99.90;;;;;;494069;241;27587;-73
2023/12/09 05:44:53;;;;;;;18.87;6.12;;;6.40;99.90;;;;;;494115;241;27933;-72
2023/12/09 05:46:55;;;;;;;10.43;5.97;;;6.40;99.90;;;;;;494121;241;27526;-72
2023/12/09 05:48:56;;;;;;;12.10;5.93;;;6.40;99.90;;;;;;494063;241;27595;-75
2023/12/09 05:50:57;;;;;;;8.75;4.85;;;6.40;99.90;;;;;;494104;241;27458;-73
2023/12/09 05:52:59;;;;;;;10.77;5.53;;;6.40;99.90;;;;;;494117;241;27595;-73
2023/12/09 05:55:00;;;;;;;19.60;5.45;;;6.40;99.90;;;;;;494013;241;29024;-72
2023/12/09 05:57:01;;;;;;;12.73;5.25;;;6.40;99.90;;;;;;494047;241;27926;-73
2023/12/09 05:59:02;;;;;;;8.02;4.40;;;6.40;99.90;;;;;;494122;241;27521;-74
2023/12/09 06:01:04;;;;;;;9.55;4.60;;;6.40;99.90;;;;;;494100;241;27625;-73
2023/12/09 06:03:05;;;;;;;21.37;4.37;;;6.40;99.90;;;;;;494125;241;27505;-73
2023/12/09 06:05:06;;;;;;;11.05;5.37;;;6.40;99.90;;;;;;494051;237;27506;-75
2023/12/09 06:07:07;;;;;;;14.87;4.93;;;6.40;99.90;;;;;;494037;241;28002;-73
2023/12/09 06:09:09;;;;;;;14.90;5.78;;;6.40;99.90;;;;;;494010;241;27588;-72
2023/12/09 06:11:10;;;;;;;13.55;5.35;;;6.40;99.90;;;;;;494000;241;27461;-73
2023/12/09 06:13:11;;;;;;;12.48;5.30;;;6.40;99.90;;;;;;494032;241;27557;-73
2023/12/09 06:15:12;;;;;;;12.77;5.20;;;6.40;99.90;;;;;;494022;241;27533;-73
2023/12/09 06:17:14;;;;;;;14.27;5.87;;;6.50;99.90;;;;;;494036;241;27922;-73
2023/12/09 06:19:15;;;;;;;10.70;4.75;;;6.50;99.90;;;;;;494099;241;27926;-73
2023/12/09 06:21:16;;;;;;;12.07;5.12;;;6.50;99.90;;;;;;494088;241;27576;-73
2023/12/09 06:23:17;;;;;;;7.57;3.72;;;6.50;99.90;;;;;;493988;241;27557;-73
2023/12/09 06:25:19;;;;;;;11.12;4.70;;;6.50;99.90;;;;;;494024;241;27517;-74
2023/12/09 06:27:20;;;;;;;8.43;4.47;;;6.40;99.90;;;;;;493996;241;27554;-72
2023/12/09 06:29:21;;;;;;;11.77;4.62;;;6.40;99.90;;;;;;494066;241;28102;-73
2023/12/09 06:31:23;;;;;;;17.95;4.15;;;6.40;99.90;;;;;;494026;241;28159;-74
2023/12/09 06:33:24;;;;;;;8.35;4.28;;;6.40;99.90;;;;;;494000;241;27608;-73
2023/12/09 06:35:25;;;;;;;11.65;4.43;;;6.40;99.90;;;;;;493992;241;27506;-74
2023/12/09 06:37:26;;;;;;;14.70;4.85;;;6.40;99.90;;;;;;493973;241;27543;-72
2023/12/09 06:39:28;;;;;;;13.13;4.53;;;6.40;99.90;;;;;;494005;241;27595;-73
2023/12/09 06:41:29;;;;;;;15.55;4.70;;;6.40;99.90;;;;;;494082;241;28834;-73
2023/12/09 06:43:30;;;;;;;9.30;4.75;;;6.50;99.90;;;;;;494087;241;28009;-73
2023/12/09 06:45:31;;;;;;;12.85;4.72;;;6.40;99.90;;;;;;494073;241;28095;-74
2023/12/09 06:47:33;;;;;;;8.10;4.43;;;6.40;99.90;;;;;;493939;241;27485;-73
2023/12/09 06:49:34;;;;;;;4.15;3.47;;;6.40;99.90;;;;;;494085;241;27481;-73
2023/12/09 06:51:35;;;;;;;8.27;4.28;;;6.40;99.90;;;;;;494071;241;27638;-73
2023/12/09 06:53:36;;;;;;;11.93;4.25;;;6.40;99.90;;;;;;493991;237;27581;-72
2023/12/09 06:55:38;;;;;;;13.32;4.47;;;6.40;99.90;;;;;;494097;241;28073;-73
2023/12/09 06:57:39;;;;;;;10.32;3.65;;;6.40;99.90;;;;;;494091;241;27999;-75
2023/12/09 06:59:40;;;;;;;11.90;4.45;;;6.50;99.90;;;;;;493998;241;27482;-73
2023/12/09 07:01:43;;;;;;;13.80;4.43;;;6.40;99.90;;;;;;494015;241;27489;-73
2023/12/09 07:03:43;;;;;;;15.65;4.62;;;6.40;99.90;;;;;;493926;241;27565;-72
2023/12/09 07:05:44;;;;;;;10.43;4.37;;;6.40;99.90;;;;;;494075;241;27594;-73
2023/12/09 07:07:45;;;;;;;11.77;5.05;;;6.40;99.90;;;;;;493989;241;27968;-73
2023/12/09 07:09:46;;;;;;;10.02;3.67;;;6.40;99.90;;;;;;493978;241;28083;-73
2023/12/09 07:11:48;;;;;;;8.23;4.05;;;6.40;99.90;;;;;;493943;241;27521;-73
2023/12/09 07:13:49;;;;;;;6.45;3.60;;;6.40;99.90;;;;;;493994;241;27492;-72
2023/12/09 07:15:50;;;;;;;11.95;3.78;;;6.40;99.90;;;;;;494009;241;27553;-72
2023/12/09 07:17:52;;;;;;;13.82;4.00;;;6.40;99.90;;;;;;494018;241;27501;-73
2023/12/09 07:19:53;;;;;;;15.00;4.05;;;6.40;99.90;;;;;;493996;241;27941;-72
2023/12/09 07:21:54;;;;;;;13.82;4.55;;;6.40;99.90;;;;;;494030;241;27963;-73
2023/12/09 07:23:55;;;;;;;10.50;4.40;;;6.40;99.90;;;;;;494060;241;27512;-74
2023/12/09 07:25:57;;;;;;;9.48;3.65;;;6.40;99.90;;;;;;494061;241;27509;-73
2023/12/09 07:27:58;;;;;;;11.65;4.12;;;6.40;99.90;;;;;;494025;241;27518;-72
2023/12/09 07:30:00;;;;;;;10.25;3.72;;;6.40;99.90;;;;;;493973;241;27457;-73
2023/12/09 07:32:00;;;;;;;9.38;4.05;;;6.40;99.90;;;;;;494039;241;28017;-72
2023/12/09 07:34:02;;;;;;;9.90;4.70;;;6.40;99.90;;;;;;494087;241;28089;-74
2023/12/09 07:36:03;;;;;;;15.82;4.22;;;6.40;99.90;;;;;;494018;241;27461;-73
2023/12/09 07:38:04;;;;;;;10.13;3.75;;;6.40;99.90;;;;;;494011;241;27523;-73
2023/12/09 07:40:06;;;;;;;11.07;3.80;;;6.40;99.90;;;;;;494037;241;27555;-74
2023/12/09 07:42:07;;;;;;;13.38;4.75;;;6.40;99.90;;;;;;494033;241;27605;-72
2023/12/09 07:44:08;;;;;;;11.73;4.25;;;6.40;99.90;;;;;;494034;241;28068;-74
2023/12/09 07:46:09;;;;;;;12.32;3.85;;;6.40;99.90;;;;;;494041;241;27474;-72
2023/12/09 07:48:10;;;;;;;9.90;3.30;;;6.40;99.90;;;;;;494035;241;27488;-73
2023/12/09 07:50:12;;;;;;;12.85;4.32;;;6.40;99.90;;;;;;494123;241;27524;-76
2023/12/09 07:52:13;;;;;;;7.15;3.55;;;6.40;99.90;;;;;;494117;241;27470;-73
2023/12/09 07:54:14;;;;;;;12.13;4.55;;;6.40;99.90;;;;;;494115;241;27616;-73
2023/12/09 07:56:15;;;;;;;11.55;5.00;;;6.40;99.90;;;;;;494016;241;27917;-72
2023/12/09 07:58:17;;;;;;;14.93;5.03;;;6.40;99.90;;;;;;494029;241;27516;-73
2023/12/09 08:00:18;;;;;;;11.38;4.30;;;6.40;99.90;;;;;;494046;241;28783;-74
2023/12/09 08:02:19;;;;;;;7.70;3.97;;;6.40;99.90;;;;;;494035;241;27460;-73
2023/12/09 08:04:20;;;;;;;5.78;3.53;;;6.40;99.90;;;;;;494016;241;28047;-73
2023/12/09 08:06:22;;;;;;;13.10;3.90;;;6.40;99.90;;;;;;494027;241;27481;-74
2023/12/09 08:08:23;;;;;;;17.65;4.72;;;6.40;99.90;;;;;;494012;241;27472;-73
2023/12/09 08:10:24;;;;;;;12.77;4.50;;;6.40;99.90;;;;;;494094;241;28016;-73
2023/12/09 08:12:26;;;;;;;13.95;4.82;;;6.40;99.90;;;;;;494074;241;27470;-73
2023/12/09 08:14:27;;;;;;;15.60;4.00;;;6.40;99.90;;;;;;494088;241;27513;-73
2023/12/09 08:16:28;;;;;;;10.65;4.68;;;6.50;99.90;;;;;;494038;241;28858;-74
2023/12/09 08:18:30;;;;;;;17.98;4.65;;;6.50;99.90;;;;;;494095;241;27458;-72
2023/12/09 08:20:31;;;;;;;9.57;3.78;;;6.60;99.90;;;;;;494087;241;28139;-73
2023/12/09 08:22:32;;;;;;;11.27;3.50;;;6.60;99.90;;;;;;493994;241;28028;-72
2023/12/09 08:24:33;;;;;;;8.60;4.00;;;6.60;99.90;;;;;;494025;241;27470;-73
2023/12/09 08:26:36;;;;;;;9.32;3.87;;;6.60;99.90;;;;;;494034;241;28835;-73
2023/12/09 08:28:36;;;;;;;8.53;3.40;;;6.70;99.90;;;;;;493865;241;27537;-73
2023/12/09 08:30:39;;;;;;;12.33;5.60;;;6.70;99.90;;;;;;494018;241;28844;-73
2023/12/09 08:32:39;;;;;;;10.00;3.90;;;6.70;99.90;;;;;;493972;241;28841;-75
2023/12/09 08:34:39;;;;;;;12.90;3.97;;;6.70;99.90;;;;;;494046;241;28027;-73
2023/12/09 08:36:41;;;;;;;16.13;3.70;;;6.70;99.90;;;;;;494009;241;28400;-74
2023/12/09 08:38:42;;;;;;;13.05;3.35;;;6.70;99.90;;;;;;494052;241;29265;-72
2023/12/09 08:40:43;;;;;;;10.80;3.75;;;6.70;99.90;;;;;;494080;241;27497;-72
2023/12/09 08:42:44;;;;;;;4.60;3.30;;;6.70;99.90;;;;;;493994;241;27617;-75
2023/12/09 08:44:46;;;;;;;6.47;3.20;;;6.70;99.90;;;;;;494002;241;27468;-73
2023/12/09 08:46:47;;;;;;;13.05;3.10;;;6.80;99.90;;;;;;493997;241;27554;-74
2023/12/09 08:48:48;;;;;;;9.47;3.27;;;6.70;99.90;;;;;;493999;241;27463;-72
2023/12/09 08:50:49;;;;;;;10.63;2.97;;;6.70;99.90;;;;;;494008;241;29281;-73
2023/12/09 08:52:51;;;;;;;12.07;4.10;;;6.70;99.90;;;;;;494010;241;29460;-73
2023/12/09 08:54:52;;;;;;;10.50;3.40;;;6.70;99.90;;;;;;493988;241;29319;-73
2023/12/09 08:56:53;;;;;;;9.73;2.80;;;6.70;99.90;;;;;;494071;241;28848;-73
2023/12/09 08:58:54;;;;;;;6.00;3.27;;;6.70;99.90;;;;;;494107;241;27505;-72
2023/12/09 09:00:56;;;;;;;12.97;3.67;;;6.80;99.90;;;;;;494109;241;28974;-73
2023/12/09 09:02:57;;;;;;;12.53;3.40;;;6.70;99.90;;;;;;494037;241;28118;-73
2023/12/09 09:04:58;;;;;;;14.20;3.40;;;6.60;99.90;;;;;;494022;241;28053;-72
2023/12/09 09:06:59;;;;;;;6.83;2.87;;;6.70;99.90;;;;;;494079;241;27869;-73
2023/12/09 09:09:01;;;;;;;9.97;3.13;;;6.70;99.90;;;;;;494118;241;29155;-76
2023/12/09 09:11:03;;;;;;;6.82;2.95;;;6.70;99.90;;;;;;494033;241;29242;-73
2023/12/09 09:13:03;;;;;;;10.93;3.60;;;6.70;99.90;;;;;;493950;241;27973;-73
2023/12/09 09:15:04;;;;;;;6.93;2.60;;;6.70;99.90;;;;;;494010;241;27453;-72
2023/12/09 09:17:06;;;;;;;13.87;4.20;;;6.70;99.90;;;;;;494040;241;27476;-73
2023/12/09 09:19:07;;;;;;;10.67;3.13;;;6.70;99.90;;;;;;494054;241;28393;-72
2023/12/09 09:21:09;;;;;;;6.30;2.93;;;6.70;99.90;;;;;;494034;241;28878;-73
2023/12/09 09:23:10;;;;;;;11.17;3.30;;;6.80;99.90;;;;;;494021;241;28526;-72
2023/12/09 09:25:12;;;;;;;10.13;2.73;;;6.70;99.90;;;;;;494092;241;28148;-73
2023/12/09 09:27:12;;;;;;;7.03;3.20;;;6.80;99.90;;;;;;494089;241;27970;-72
2023/12/09 09:29:13;;;;;;;8.00;2.30;;;6.80;99.90;;;;;;494123;241;28166;-74
2023/12/09 09:31:15;;;;;;;5.50;2.40;;;6.80;99.90;;;;;;494127;241;29260;-73
2023/12/09 09:33:17;;;;;;;7.17;2.40;;;6.80;99.90;;;;;;494111;241;28846;-73
2023/12/09 09:35:17;;;;;;;9.73;2.77;;;6.80;99.90;;;;;;494039;241;27870;-72
2023/12/09 09:37:18;;;;;;;7.20;2.42;;;6.90;99.90;;;;;;494136;241;28811;-72
2023/12/09 09:39:20;;;;;;;9.40;2.57;;;6.90;99.90;;;;;;494111;241;27506;-73
2023/12/09 09:41:21;;;;;;;10.40;2.77;;;6.90;99.90;;;;;;494036;241;27967;-72
2023/12/09 09:43:22;;;;;;;11.87;3.00;;;6.90;99.90;;;;;;494004;241;28066;-73
2023/12/09 09:45:23;;;;;;;5.10;2.40;;;6.90;99.90;;;;;;494030;241;29311;-74
2023/12/09 09:47:25;;;;;;;6.50;2.27;;;6.90;99.90;;;;;;494032;241;28941;-73
2023/12/09 09:49:26;;;;;;;9.27;2.67;;;7.00;99.90;;;;;;494037;241;28592;-73
2023/12/09 09:51:28;;;;;;;7.80;2.47;;;7.00;99.90;;;;;;494012;241;28051;-72
2023/12/09 09:53:28;;;;;;;8.83;2.70;;;6.90;99.90;;;;;;494022;241;27964;-73
2023/12/09 09:55:30;;;;;;;9.83;2.50;;;6.90;99.90;;;;;;494087;241;27849;-73
2023/12/09 09:57:31;;;;;;;5.03;2.57;;;6.90;99.90;;;;;;494087;241;28378;-72
2023/12/09 09:59:32;;;;;;;8.82;2.50;;;6.90;99.90;;;;;;493994;241;27980;-73
2023/12/09 10:01:33;;;;;;;7.05;2.22;;;6.90;99.90;;;;;;494032;241;27577;-75
2023/12/09 10:03:35;;;;;;;6.30;2.33;;;7.00;99.90;;;;;;494054;241;27461;-73
2023/12/09 10:05:37;;;;;;;6.37;2.17;;;7.00;99.90;;;;;;494046;241;27996;-73
2023/12/09 10:07:37;;;;;;;7.37;2.83;;;7.00;99.90;;;;;;494003;241;28301;-73
2023/12/09 10:09:38;;;;;;;5.17;2.97;;;7.00;99.90;;;;;;493428;241;28301;-72
2023/12/09 10:11:40;;;;;;;6.12;2.40;;;6.90;99.90;;;;;;493358;239;28671;-74
2023/12/09 10:13:41;;;;;;;6.33;3.10;;;6.90;99.90;;;;;;493252;237;27473;-73
2023/12/09 10:15:42;;;;;;;9.70;2.60;;;6.90;99.90;;;;;;493570;241;28064;-73
2023/12/09 10:17:43;;;;;;;7.73;2.57;;;6.90;99.90;;;;;;494072;241;28069;-72
2023/12/09 10:19:45;;;;;;;5.00;2.33;;;6.90;99.90;;;;;;494068;241;28024;-73
2023/12/09 10:21:46;;;;;;;6.77;2.40;;;6.90;99.90;;;;;;494113;241;27986;-75
2023/12/09 10:23:47;;;;;;;4.97;2.70;;;6.90;99.90;;;;;;494005;241;28968;-73
2023/12/09 10:25:49;;;;;;;7.43;2.67;;;6.90;99.90;;;;;;493968;241;27952;-73
2023/12/09 10:27:50;;;;;;;6.80;2.53;;;6.90;99.90;;;;;;494018;241;27978;-76
2023/12/09 10:29:51;;;;;;;12.67;2.90;;;6.80;99.90;;;;;;494026;241;27954;-73
2023/12/09 10:31:52;;;;;;;10.77;2.47;;;6.80;99.90;;;;;;494062;241;27917;-73
2023/12/09 10:33:53;;;;;;;5.73;2.93;;;6.80;99.90;;;;;;494011;241;27819;-73